Ns Clipper — A8GW6 — position and weather

sailwx.info

Track history (hours):
 
Tides and Currents Weather Stations Pressure Air Temp Water Temp Dewpoint Dewpoint Depression Visibility Wind Speed Wind Dir Waves Ship Positions

Ns Clipper

Last reported at 2018-Jan-20 18:00 UTC. Time now 2018-Jan-22 13:51 UTC.
Position N 52°09' E 003°40'.

Length 244 m; draft 8.2 m.

Type: Ship. MMSI: 636012661.

Date/timePositionNaut miles runAvg speedWind from/ knotsBaromVisibWave heightAir tempDewpointWater temp
2018-Jan-20 18:00N 52°09' E 003°40'2 3.6
2018-Jan-20 17:30N 52°08' E 003°39'5 8.9
2018-Jan-20 16:59N 52°05' E 003°45'510.6
2018-Jan-20 16:30N 52°04' E 003°53'3 6.2
2018-Jan-20 16:00N 52°02' E 003°57'510.7
2018-Jan-20 15:30N 51°59' E 004°04'1 1.8
2018-Jan-20 14:59N 51°58' E 004°04'0 0.0
2018-Jan-20 14:29N 51°58' E 004°04'0 0.0
2018-Jan-20 13:59N 51°58' E 004°04'0 0.0
2018-Jan-20 13:29N 51°58' E 004°04'0 0.0
2018-Jan-20 12:59N 51°58' E 004°04'0 0.0
2018-Jan-20 12:26N 51°58' E 004°04'0 0.0
2018-Jan-20 11:59N 51°58' E 004°04'0 0.0
2018-Jan-20 11:29N 51°58' E 004°04'0 0.0
2018-Jan-20 10:56N 51°58' E 004°04'0 0.0
2018-Jan-20 10:29N 51°58' E 004°04'0 0.0
2018-Jan-20 09:59N 51°58' E 004°04'0 0.0
2018-Jan-20 09:26N 51°58' E 004°04'0 0.0
2018-Jan-20 08:59N 51°58' E 004°04'0 0.0
2018-Jan-20 08:26N 51°58' E 004°04'0 0.0
2018-Jan-20 07:59N 51°58' E 004°04'0 0.0
2018-Jan-20 07:29N 51°58' E 004°04'0 0.0
2018-Jan-20 06:59N 51°58' E 004°04'0 0.0
2018-Jan-20 06:26N 51°58' E 004°04'0 0.0
2018-Jan-20 05:59N 51°58' E 004°04'0 0.0
2018-Jan-20 05:26N 51°58' E 004°04'0 0.0
2018-Jan-20 04:59N 51°58' E 004°04'0 0.0
2018-Jan-20 04:29N 51°58' E 004°04'0 0.0
2018-Jan-20 03:59N 51°58' E 004°04'0 0.0
2018-Jan-20 03:29N 51°58' E 004°04'0 0.0
2018-Jan-20 02:53N 51°58' E 004°04'0 0.0
2018-Jan-20 02:26N 51°58' E 004°04'0 0.0
2018-Jan-20 01:59N 51°58' E 004°04'0 0.0
2018-Jan-20 01:29N 51°58' E 004°04'0 0.0
2018-Jan-20 00:59N 51°58' E 004°04'0 0.0
2018-Jan-20 00:23N 51°58' E 004°04'0 0.0
2018-Jan-19 23:59N 51°58' E 004°04'0 0.0
2018-Jan-19 23:29N 51°58' E 004°04'0 0.0
2018-Jan-19 22:56N 51°58' E 004°04'0 0.0
2018-Jan-19 22:29N 51°58' E 004°04'0 0.0
2018-Jan-19 21:59N 51°58' E 004°04'0 0.0
2018-Jan-19 21:29N 51°58' E 004°04'0 0.0
2018-Jan-19 20:59N 51°58' E 004°04'0 0.0
2018-Jan-19 20:23N 51°58' E 004°04'0 0.0
2018-Jan-19 19:59N 51°58' E 004°04'0 0.0
2018-Jan-19 19:29N 51°58' E 004°04'0 0.0
2018-Jan-19 18:59N 51°58' E 004°04'0 0.0
2018-Jan-19 18:29N 51°58' E 004°04'0 0.0
2018-Jan-19 18:00N 51°58' E 004°04'0 0.2
2018-Jan-19 17:30N 51°58' E 004°04'1 1.4
2018-Jan-19 17:00N 51°58' E 004°05'3 5.5
2018-Jan-19 16:30N 51°60' E 004°01'4 8.4
2018-Jan-19 16:00N 52°00' E 003°54'4 8.6
2018-Jan-19 15:30N 51°59' E 003°47'3 6.2
2018-Jan-19 15:00N 51°58' E 003°43'3 5.3
2018-Jan-19 14:30N 51°57' E 003°39'5 7.5
2018-Jan-19 13:53N 51°56' E 003°31'511.9
2018-Jan-19 13:28N 51°55' E 003°24'5 9.6
2018-Jan-19 12:59N 51°55' E 003°16'611.9
2018-Jan-19 12:30N 51°54' E 003°07'611.5
2018-Jan-19 11:59N 51°53' E 002°58'611.2
2018-Jan-19 11:28N 51°52' E 002°48'511.0
2018-Jan-19 11:00N 51°52' E 002°40'226 8.9
2018-Jan-18 09:45N 53°48' E 008°00'2 6.9
2018-Jan-18 09:30N 53°47' E 008°02'4 8.9
2018-Jan-18 09:00N 53°43' E 008°04'4 8.3
2018-Jan-18 08:30N 53°39' E 008°07'2 3.6
2018-Jan-18 08:00N 53°37' E 008°09'0 0.1
2018-Jan-18 07:30N 53°37' E 008°09'0 0.0
2018-Jan-18 07:00N 53°37' E 008°09'0 0.0
2018-Jan-18 06:30N 53°37' E 008°09'0 0.0
2018-Jan-18 06:00N 53°37' E 008°09'0 0.0
2018-Jan-18 05:30N 53°37' E 008°09'0 0.0
2018-Jan-18 05:00N 53°37' E 008°09'0 0.0
2018-Jan-18 04:30N 53°37' E 008°09'0 0.0
2018-Jan-18 04:00N 53°37' E 008°09'0 0.0
2018-Jan-18 03:30N 53°37' E 008°09'0 0.0
2018-Jan-18 03:00N 53°37' E 008°09'0 0.0
2018-Jan-18 02:30N 53°37' E 008°09'0 0.0
2018-Jan-18 01:57N 53°37' E 008°09'0 0.0
2018-Jan-18 01:30N 53°37' E 008°09'0 0.0
2018-Jan-18 01:00N 53°37' E 008°09'0 0.0
2018-Jan-17 23:48N 53°37' E 008°09'  
2018-Jan-12 14:57N 53°37' E 008°09'0 0.0
2018-Jan-12 14:27N 53°37' E 008°09'0 0.0
2018-Jan-12 13:57N 53°37' E 008°09'0 0.0
2018-Jan-12 13:30N 53°37' E 008°09'0 0.0
2018-Jan-12 12:54N 53°37' E 008°09'0 0.0
2018-Jan-12 12:30N 53°37' E 008°09'0 0.0
2018-Jan-12 12:00N 53°37' E 008°09'0 0.0
2018-Jan-12 11:27N 53°37' E 008°09'0 0.0
2018-Jan-12 11:00N 53°37' E 008°09'0 0.0
2018-Jan-12 10:27N 53°37' E 008°09'0 0.0
2018-Jan-12 09:57N 53°37' E 008°09'0 0.0
2018-Jan-12 09:30N 53°37' E 008°09'0 0.0
2018-Jan-12 08:57N 53°37' E 008°09'0 0.0
2018-Jan-12 08:30N 53°37' E 008°09'0 0.0
2018-Jan-12 07:57N 53°37' E 008°09'0 0.0
2018-Jan-12 07:30N 53°37' E 008°09'0 0.0
2018-Jan-12 07:00N 53°37' E 008°09'0 0.0
2018-Jan-12 06:30N 53°37' E 008°09'0 0.0
2018-Jan-12 06:00N 53°37' E 008°09'0 0.0
2018-Jan-12 05:30N 53°37' E 008°09'0 0.0
2018-Jan-12 05:00N 53°37' E 008°09'0 0.0
2018-Jan-12 04:27N 53°37' E 008°09'0 0.0
2018-Jan-12 04:00N 53°37' E 008°09'0 0.0
2018-Jan-12 03:30N 53°37' E 008°09'0 0.0
2018-Jan-12 03:00N 53°37' E 008°09'0 0.0
2018-Jan-12 02:30N 53°37' E 008°09'0 0.0
2018-Jan-12 02:00N 53°37' E 008°09'0 0.0
2018-Jan-12 01:30N 53°37' E 008°09'0 0.0
2018-Jan-12 01:00N 53°37' E 008°09'0 0.0
2018-Jan-12 00:30N 53°37' E 008°09'0 0.0
2018-Jan-11 23:48N 53°37' E 008°09'0 0.0
2018-Jan-11 23:24N 53°37' E 008°09'0 0.0
2018-Jan-11 22:57N 53°37' E 008°09'0 0.0
2018-Jan-11 22:30N 53°37' E 008°09'0 0.0
2018-Jan-11 22:00N 53°37' E 008°09'0 0.0
2018-Jan-11 21:24N 53°37' E 008°09'0 0.0
2018-Jan-11 21:00N 53°37' E 008°09'0 0.0
2018-Jan-11 20:30N 53°37' E 008°09'0 0.0
2018-Jan-11 20:00N 53°37' E 008°09'0 0.0
2018-Jan-11 19:27N 53°37' E 008°09'0 0.0
2018-Jan-11 19:00N 53°37' E 008°09'0 0.0
2018-Jan-11 18:30N 53°37' E 008°09'0 0.0
2018-Jan-11 18:00N 53°37' E 008°09'0 0.0
2018-Jan-11 17:30N 53°37' E 008°09'0 0.0
2018-Jan-11 17:00N 53°37' E 008°09'0 0.0
2018-Jan-11 16:30N 53°37' E 008°09'0 0.0
2018-Jan-11 16:00N 53°37' E 008°09'0 0.0
2018-Jan-11 15:30N 53°37' E 008°09'0 0.0
2018-Jan-11 15:00N 53°37' E 008°09'0 0.0
2018-Jan-11 14:30N 53°37' E 008°09'0 0.0
2018-Jan-11 13:54N 53°37' E 008°09'0 0.0
2018-Jan-11 13:30N 53°37' E 008°09'0 0.0
2018-Jan-11 13:00N 53°37' E 008°09'0 0.0
2018-Jan-11 12:30N 53°37' E 008°09'0 0.0
2018-Jan-11 12:00N 53°37' E 008°09'0 0.0
2018-Jan-11 11:30N 53°37' E 008°09'0 0.0
2018-Jan-11 11:00N 53°37' E 008°09'0 0.0
2018-Jan-11 10:30N 53°37' E 008°09'0 0.0
2018-Jan-11 10:00N 53°37' E 008°09'0 0.0
2018-Jan-11 09:30N 53°37' E 008°09'0 0.0
2018-Jan-11 08:57N 53°37' E 008°09'0 0.0
2018-Jan-11 08:30N 53°37' E 008°09'0 0.0
2018-Jan-11 08:00N 53°37' E 008°09'0 0.0
2018-Jan-11 07:30N 53°37' E 008°09'0 0.0
2018-Jan-11 07:00N 53°37' E 008°09'0 0.0
2018-Jan-11 06:30N 53°37' E 008°09'0 0.0
2018-Jan-11 05:57N 53°37' E 008°09'0 0.0
2018-Jan-11 05:30N 53°37' E 008°09'0 0.0
2018-Jan-11 05:00N 53°37' E 008°09'0 0.0
2018-Jan-11 04:30N 53°37' E 008°09'0 0.0
2018-Jan-11 04:00N 53°37' E 008°09'0 0.0
2018-Jan-11 03:30N 53°37' E 008°09'0 0.0
2018-Jan-11 03:00N 53°37' E 008°09'0 0.0
2018-Jan-11 02:27N 53°37' E 008°09'0 0.0
2018-Jan-11 02:00N 53°37' E 008°09'0 0.0
2018-Jan-11 01:30N 53°37' E 008°09'0 0.0
2018-Jan-11 01:00N 53°37' E 008°09'0 0.0
2018-Jan-11 00:30N 53°37' E 008°09'0 0.0
2018-Jan-11 00:00N 53°37' E 008°09'0 0.0
2018-Jan-10 23:30N 53°37' E 008°09'0 0.0
2018-Jan-10 23:00N 53°37' E 008°09'0 0.0
2018-Jan-10 22:27N 53°37' E 008°09'0 0.0
2018-Jan-10 22:00N 53°37' E 008°09'0 0.0
2018-Jan-10 21:30N 53°37' E 008°09'0 0.0
2018-Jan-10 20:57N 53°37' E 008°09'0 0.0
2018-Jan-10 20:27N 53°37' E 008°09'0 0.0
2018-Jan-10 20:00N 53°37' E 008°09'0 0.0
2018-Jan-10 19:30N 53°37' E 008°09'0 0.0
2018-Jan-10 18:57N 53°37' E 008°09'0 0.0
2018-Jan-10 18:30N 53°37' E 008°09'  
Track history (hours):
 
Tides and Currents Weather Stations Pressure Air Temp Water Temp Dewpoint Dewpoint Depression Visibility Wind Speed Wind Dir Waves Ship Positions

Ns Clipper

Last reported at 2018-Jan-20 18:00 UTC. Time now 2018-Jan-22 13:51 UTC.
Position N 52°09' E 003°40'.

Length 244 m; draft 8.2 m.

Type: Ship. MMSI: 636012661.

Date/timePositionNaut miles runAvg speedWind from/ knotsBaromVisibWave heightAir tempDewpointWater temp
2018-Jan-20 18:00N 52°09' E 003°40'2 3.6
2018-Jan-20 17:30N 52°08' E 003°39'5 8.9
2018-Jan-20 16:59N 52°05' E 003°45'510.6
2018-Jan-20 16:30N 52°04' E 003°53'3 6.2
2018-Jan-20 16:00N 52°02' E 003°57'510.7
2018-Jan-20 15:30N 51°59' E 004°04'1 1.8
2018-Jan-20 14:59N 51°58' E 004°04'0 0.0
2018-Jan-20 14:29N 51°58' E 004°04'0 0.0
2018-Jan-20 13:59N 51°58' E 004°04'0 0.0
2018-Jan-20 13:29N 51°58' E 004°04'0 0.0
2018-Jan-20 12:59N 51°58' E 004°04'0 0.0
2018-Jan-20 12:26N 51°58' E 004°04'0 0.0
2018-Jan-20 11:59N 51°58' E 004°04'0 0.0
2018-Jan-20 11:29N 51°58' E 004°04'0 0.0
2018-Jan-20 10:56N 51°58' E 004°04'0 0.0
2018-Jan-20 10:29N 51°58' E 004°04'0 0.0
2018-Jan-20 09:59N 51°58' E 004°04'0 0.0
2018-Jan-20 09:26N 51°58' E 004°04'0 0.0
2018-Jan-20 08:59N 51°58' E 004°04'0 0.0
2018-Jan-20 08:26N 51°58' E 004°04'0 0.0
2018-Jan-20 07:59N 51°58' E 004°04'0 0.0
2018-Jan-20 07:29N 51°58' E 004°04'0 0.0
2018-Jan-20 06:59N 51°58' E 004°04'0 0.0
2018-Jan-20 06:26N 51°58' E 004°04'0 0.0
2018-Jan-20 05:59N 51°58' E 004°04'0 0.0
2018-Jan-20 05:26N 51°58' E 004°04'0 0.0
2018-Jan-20 04:59N 51°58' E 004°04'0 0.0
2018-Jan-20 04:29N 51°58' E 004°04'0 0.0
2018-Jan-20 03:59N 51°58' E 004°04'0 0.0
2018-Jan-20 03:29N 51°58' E 004°04'0 0.0
2018-Jan-20 02:53N 51°58' E 004°04'0 0.0
2018-Jan-20 02:26N 51°58' E 004°04'0 0.0
2018-Jan-20 01:59N 51°58' E 004°04'0 0.0
2018-Jan-20 01:29N 51°58' E 004°04'0 0.0
2018-Jan-20 00:59N 51°58' E 004°04'0 0.0
2018-Jan-20 00:23N 51°58' E 004°04'0 0.0
2018-Jan-19 23:59N 51°58' E 004°04'0 0.0
2018-Jan-19 23:29N 51°58' E 004°04'0 0.0
2018-Jan-19 22:56N 51°58' E 004°04'0 0.0
2018-Jan-19 22:29N 51°58' E 004°04'0 0.0
2018-Jan-19 21:59N 51°58' E 004°04'0 0.0
2018-Jan-19 21:29N 51°58' E 004°04'0 0.0
2018-Jan-19 20:59N 51°58' E 004°04'0 0.0
2018-Jan-19 20:23N 51°58' E 004°04'0 0.0
2018-Jan-19 19:59N 51°58' E 004°04'0 0.0
2018-Jan-19 19:29N 51°58' E 004°04'0 0.0
2018-Jan-19 18:59N 51°58' E 004°04'0 0.0
2018-Jan-19 18:29N 51°58' E 004°04'0 0.0
2018-Jan-19 18:00N 51°58' E 004°04'0 0.2
2018-Jan-19 17:30N 51°58' E 004°04'1 1.4
2018-Jan-19 17:00N 51°58' E 004°05'3 5.5
2018-Jan-19 16:30N 51°60' E 004°01'4 8.4
2018-Jan-19 16:00N 52°00' E 003°54'4 8.6
2018-Jan-19 15:30N 51°59' E 003°47'3 6.2
2018-Jan-19 15:00N 51°58' E 003°43'3 5.3
2018-Jan-19 14:30N 51°57' E 003°39'5 7.5
2018-Jan-19 13:53N 51°56' E 003°31'511.9
2018-Jan-19 13:28N 51°55' E 003°24'5 9.6
2018-Jan-19 12:59N 51°55' E 003°16'611.9
2018-Jan-19 12:30N 51°54' E 003°07'611.5
2018-Jan-19 11:59N 51°53' E 002°58'611.2
2018-Jan-19 11:28N 51°52' E 002°48'511.0
2018-Jan-19 11:00N 51°52' E 002°40'226 8.9
2018-Jan-18 09:45N 53°48' E 008°00'2 6.9
2018-Jan-18 09:30N 53°47' E 008°02'4 8.9
2018-Jan-18 09:00N 53°43' E 008°04'4 8.3
2018-Jan-18 08:30N 53°39' E 008°07'2 3.6
2018-Jan-18 08:00N 53°37' E 008°09'0 0.1
2018-Jan-18 07:30N 53°37' E 008°09'0 0.0
2018-Jan-18 07:00N 53°37' E 008°09'0 0.0
2018-Jan-18 06:30N 53°37' E 008°09'0 0.0
2018-Jan-18 06:00N 53°37' E 008°09'0 0.0
2018-Jan-18 05:30N 53°37' E 008°09'0 0.0
2018-Jan-18 05:00N 53°37' E 008°09'0 0.0
2018-Jan-18 04:30N 53°37' E 008°09'0 0.0
2018-Jan-18 04:00N 53°37' E 008°09'0 0.0
2018-Jan-18 03:30N 53°37' E 008°09'0 0.0
2018-Jan-18 03:00N 53°37' E 008°09'0 0.0
2018-Jan-18 02:30N 53°37' E 008°09'0 0.0
2018-Jan-18 01:57N 53°37' E 008°09'0 0.0
2018-Jan-18 01:30N 53°37' E 008°09'0 0.0
2018-Jan-18 01:00N 53°37' E 008°09'0 0.0
2018-Jan-17 23:48N 53°37' E 008°09'  
2018-Jan-12 14:57N 53°37' E 008°09'0 0.0
2018-Jan-12 14:27N 53°37' E 008°09'0 0.0
2018-Jan-12 13:57N 53°37' E 008°09'0 0.0
2018-Jan-12 13:30N 53°37' E 008°09'0 0.0
2018-Jan-12 12:54N 53°37' E 008°09'0 0.0
2018-Jan-12 12:30N 53°37' E 008°09'0 0.0
2018-Jan-12 12:00N 53°37' E 008°09'0 0.0
2018-Jan-12 11:27N 53°37' E 008°09'0 0.0
2018-Jan-12 11:00N 53°37' E 008°09'0 0.0
2018-Jan-12 10:27N 53°37' E 008°09'0 0.0
2018-Jan-12 09:57N 53°37' E 008°09'0 0.0
2018-Jan-12 09:30N 53°37' E 008°09'0 0.0
2018-Jan-12 08:57N 53°37' E 008°09'0 0.0
2018-Jan-12 08:30N 53°37' E 008°09'0 0.0
2018-Jan-12 07:57N 53°37' E 008°09'0 0.0
2018-Jan-12 07:30N 53°37' E 008°09'0 0.0
2018-Jan-12 07:00N 53°37' E 008°09'0 0.0
2018-Jan-12 06:30N 53°37' E 008°09'0 0.0
2018-Jan-12 06:00N 53°37' E 008°09'0 0.0
2018-Jan-12 05:30N 53°37' E 008°09'0 0.0
2018-Jan-12 05:00N 53°37' E 008°09'0 0.0
2018-Jan-12 04:27N 53°37' E 008°09'0 0.0
2018-Jan-12 04:00N 53°37' E 008°09'0 0.0
2018-Jan-12 03:30N 53°37' E 008°09'0 0.0
2018-Jan-12 03:00N 53°37' E 008°09'0 0.0
2018-Jan-12 02:30N 53°37' E 008°09'0 0.0
2018-Jan-12 02:00N 53°37' E 008°09'0 0.0
2018-Jan-12 01:30N 53°37' E 008°09'0 0.0
2018-Jan-12 01:00N 53°37' E 008°09'0 0.0
2018-Jan-12 00:30N 53°37' E 008°09'0 0.0
2018-Jan-11 23:48N 53°37' E 008°09'0 0.0
2018-Jan-11 23:24N 53°37' E 008°09'0 0.0
2018-Jan-11 22:57N 53°37' E 008°09'0 0.0
2018-Jan-11 22:30N 53°37' E 008°09'0 0.0
2018-Jan-11 22:00N 53°37' E 008°09'0 0.0
2018-Jan-11 21:24N 53°37' E 008°09'0 0.0
2018-Jan-11 21:00N 53°37' E 008°09'0 0.0
2018-Jan-11 20:30N 53°37' E 008°09'0 0.0
2018-Jan-11 20:00N 53°37' E 008°09'0 0.0
2018-Jan-11 19:27N 53°37' E 008°09'0 0.0
2018-Jan-11 19:00N 53°37' E 008°09'0 0.0
2018-Jan-11 18:30N 53°37' E 008°09'0 0.0
2018-Jan-11 18:00N 53°37' E 008°09'0 0.0
2018-Jan-11 17:30N 53°37' E 008°09'0 0.0
2018-Jan-11 17:00N 53°37' E 008°09'0 0.0
2018-Jan-11 16:30N 53°37' E 008°09'0 0.0
2018-Jan-11 16:00N 53°37' E 008°09'0 0.0
2018-Jan-11 15:30N 53°37' E 008°09'0 0.0
2018-Jan-11 15:00N 53°37' E 008°09'0 0.0
2018-Jan-11 14:30N 53°37' E 008°09'0 0.0
2018-Jan-11 13:54N 53°37' E 008°09'0 0.0
2018-Jan-11 13:30N 53°37' E 008°09'0 0.0
2018-Jan-11 13:00N 53°37' E 008°09'0 0.0
2018-Jan-11 12:30N 53°37' E 008°09'0 0.0
2018-Jan-11 12:00N 53°37' E 008°09'0 0.0
2018-Jan-11 11:30N 53°37' E 008°09'0 0.0
2018-Jan-11 11:00N 53°37' E 008°09'0 0.0
2018-Jan-11 10:30N 53°37' E 008°09'0 0.0
2018-Jan-11 10:00N 53°37' E 008°09'0 0.0
2018-Jan-11 09:30N 53°37' E 008°09'0 0.0
2018-Jan-11 08:57N 53°37' E 008°09'0 0.0
2018-Jan-11 08:30N 53°37' E 008°09'0 0.0
2018-Jan-11 08:00N 53°37' E 008°09'0 0.0
2018-Jan-11 07:30N 53°37' E 008°09'0 0.0
2018-Jan-11 07:00N 53°37' E 008°09'0 0.0
2018-Jan-11 06:30N 53°37' E 008°09'0 0.0
2018-Jan-11 05:57N 53°37' E 008°09'0 0.0
2018-Jan-11 05:30N 53°37' E 008°09'0 0.0
2018-Jan-11 05:00N 53°37' E 008°09'0 0.0
2018-Jan-11 04:30N 53°37' E 008°09'0 0.0
2018-Jan-11 04:00N 53°37' E 008°09'0 0.0
2018-Jan-11 03:30N 53°37' E 008°09'0 0.0
2018-Jan-11 03:00N 53°37' E 008°09'0 0.0
2018-Jan-11 02:27N 53°37' E 008°09'0 0.0
2018-Jan-11 02:00N 53°37' E 008°09'0 0.0
2018-Jan-11 01:30N 53°37' E 008°09'0 0.0
2018-Jan-11 01:00N 53°37' E 008°09'0 0.0
2018-Jan-11 00:30N 53°37' E 008°09'0 0.0
2018-Jan-11 00:00N 53°37' E 008°09'0 0.0
2018-Jan-10 23:30N 53°37' E 008°09'0 0.0
2018-Jan-10 23:00N 53°37' E 008°09'0 0.0
2018-Jan-10 22:27N 53°37' E 008°09'0 0.0
2018-Jan-10 22:00N 53°37' E 008°09'0 0.0
2018-Jan-10 21:30N 53°37' E 008°09'0 0.0
2018-Jan-10 20:57N 53°37' E 008°09'0 0.0
2018-Jan-10 20:27N 53°37' E 008°09'0 0.0
2018-Jan-10 20:00N 53°37' E 008°09'0 0.0
2018-Jan-10 19:30N 53°37' E 008°09'0 0.0
2018-Jan-10 18:57N 53°37' E 008°09'0 0.0
2018-Jan-10 18:30N 53°37' E 008°09'  

Dump ship's entire track history